Porto Lucena, Brazil
Current Conditions -  °F | °C
As of 11:00 AM on Thursday 27 Nov 2014 (Local Time) from SARP Reporting Station
Clear Clear  
Wind Chill: 84°   Ceiling: Unl
Heat Index: 87°   Visibility: 6mi
Dew Point: 68°   Wind: 3mph
Humidity: 58%   Direction: 110°ESE
Pressure: 29.94"   Gusts: NA
Location:  27.86°S, 55.02°W
Report Text: SARP 271300Z 11003KT CAVOK 29/20 Q1014
Loading
Personal Weather Stations






























Interactive Weather Map New forecast layout! Learn more

10-Day Weather Forecast

Advertisements
Track Severe Weather on mobile